sensor_id;sensor_type;location;lat;lon;timestamp;P1;durP1;ratioP1;P2;durP2;ratioP2
51382;SDS011;37475;43.358;1.248;2023-10-09T00:02:11;8.55;;;4.22;;
51382;SDS011;37475;43.358;1.248;2023-10-09T00:04:39;7.85;;;4.25;;
51382;SDS011;37475;43.358;1.248;2023-10-09T00:07:13;8.77;;;4.60;;
51382;SDS011;37475;43.358;1.248;2023-10-09T00:09:42;11.00;;;4.50;;
51382;SDS011;37475;43.358;1.248;2023-10-09T00:12:19;9.55;;;4.13;;
51382;SDS011;37475;43.358;1.248;2023-10-09T00:14:51;8.37;;;4.30;;
51382;SDS011;37475;43.358;1.248;2023-10-09T00:17:20;12.63;;;4.75;;
51382;SDS011;37475;43.358;1.248;2023-10-09T00:19:48;9.90;;;4.85;;
51382;SDS011;37475;43.358;1.248;2023-10-09T00:22:16;7.45;;;4.13;;
51382;SDS011;37475;43.358;1.248;2023-10-09T00:24:49;9.82;;;4.80;;
51382;SDS011;37475;43.358;1.248;2023-10-09T00:27:16;7.25;;;4.53;;
51382;SDS011;37475;43.358;1.248;2023-10-09T00:29:47;9.10;;;4.82;;
51382;SDS011;37475;43.358;1.248;2023-10-09T00:32:14;10.27;;;4.97;;
51382;SDS011;37475;43.358;1.248;2023-10-09T00:34:48;8.10;;;4.55;;
51382;SDS011;37475;43.358;1.248;2023-10-09T00:37:15;10.73;;;4.80;;
51382;SDS011;37475;43.358;1.248;2023-10-09T00:39:42;11.40;;;4.78;;
51382;SDS011;37475;43.358;1.248;2023-10-09T00:42:12;8.07;;;4.50;;
51382;SDS011;37475;43.358;1.248;2023-10-09T00:44:39;10.68;;;4.90;;
51382;SDS011;37475;43.358;1.248;2023-10-09T00:47:11;8.13;;;4.70;;
51382;SDS011;37475;43.358;1.248;2023-10-09T00:50:00;9.15;;;4.50;;
51382;SDS011;37475;43.358;1.248;2023-10-09T00:52:41;7.97;;;4.43;;
51382;SDS011;37475;43.358;1.248;2023-10-09T00:55:27;8.63;;;4.50;;
51382;SDS011;37475;43.358;1.248;2023-10-09T00:58:08;9.50;;;4.88;;
51382;SDS011;37475;43.358;1.248;2023-10-09T01:00:37;8.20;;;4.32;;
51382;SDS011;37475;43.358;1.248;2023-10-09T01:05:44;7.85;;;4.05;;
51382;SDS011;37475;43.358;1.248;2023-10-09T01:08:23;8.68;;;4.82;;
51382;SDS011;37475;43.358;1.248;2023-10-09T01:10:54;7.18;;;4.35;;
51382;SDS011;37475;43.358;1.248;2023-10-09T01:13:33;10.43;;;4.50;;
51382;SDS011;37475;43.358;1.248;2023-10-09T01:16:26;9.15;;;4.28;;
51382;SDS011;37475;43.358;1.248;2023-10-09T01:18:56;7.63;;;4.57;;
51382;SDS011;37475;43.358;1.248;2023-10-09T01:21:22;8.23;;;4.47;;
51382;SDS011;37475;43.358;1.248;2023-10-09T01:23:50;9.57;;;4.32;;
51382;SDS011;37475;43.358;1.248;2023-10-09T01:26:33;8.93;;;4.30;;
51382;SDS011;37475;43.358;1.248;2023-10-09T01:34:25;7.47;;;4.38;;
51382;SDS011;37475;43.358;1.248;2023-10-09T01:37:09;8.13;;;4.40;;
51382;SDS011;37475;43.358;1.248;2023-10-09T01:39:54;8.25;;;4.35;;
51382;SDS011;37475;43.358;1.248;2023-10-09T01:42:41;8.80;;;4.50;;
51382;SDS011;37475;43.358;1.248;2023-10-09T01:45:13;9.15;;;3.97;;
51382;SDS011;37475;43.358;1.248;2023-10-09T01:47:45;8.25;;;4.18;;
51382;SDS011;37475;43.358;1.248;2023-10-09T01:50:16;10.77;;;4.38;;
51382;SDS011;37475;43.358;1.248;2023-10-09T01:53:02;7.50;;;4.10;;
51382;SDS011;37475;43.358;1.248;2023-10-09T01:55:30;8.57;;;4.07;;
51382;SDS011;37475;43.358;1.248;2023-10-09T01:58:06;10.20;;;4.53;;
51382;SDS011;37475;43.358;1.248;2023-10-09T02:00:44;8.13;;;4.32;;
51382;SDS011;37475;43.358;1.248;2023-10-09T02:03:14;6.80;;;4.10;;
51382;SDS011;37475;43.358;1.248;2023-10-09T02:05:41;8.10;;;4.10;;
51382;SDS011;37475;43.358;1.248;2023-10-09T02:08:07;8.32;;;4.07;;
51382;SDS011;37475;43.358;1.248;2023-10-09T02:10:38;6.40;;;4.00;;
51382;SDS011;37475;43.358;1.248;2023-10-09T02:13:05;7.15;;;3.83;;
51382;SDS011;37475;43.358;1.248;2023-10-09T02:15:36;8.40;;;4.18;;
51382;SDS011;37475;43.358;1.248;2023-10-09T02:18:10;7.65;;;4.35;;
51382;SDS011;37475;43.358;1.248;2023-10-09T02:20:47;8.50;;;4.68;;
51382;SDS011;37475;43.358;1.248;2023-10-09T02:23:33;10.55;;;4.68;;
51382;SDS011;37475;43.358;1.248;2023-10-09T02:26:13;7.95;;;4.68;;
51382;SDS011;37475;43.358;1.248;2023-10-09T02:28:57;8.27;;;4.38;;
51382;SDS011;37475;43.358;1.248;2023-10-09T02:31:24;7.85;;;4.18;;
51382;SDS011;37475;43.358;1.248;2023-10-09T02:33:53;8.10;;;4.20;;
51382;SDS011;37475;43.358;1.248;2023-10-09T02:36:21;9.52;;;4.63;;
51382;SDS011;37475;43.358;1.248;2023-10-09T02:38:47;10.50;;;4.90;;
51382;SDS011;37475;43.358;1.248;2023-10-09T02:41:16;8.57;;;4.90;;
51382;SDS011;37475;43.358;1.248;2023-10-09T02:43:42;9.07;;;4.65;;
51382;SDS011;37475;43.358;1.248;2023-10-09T02:46:15;10.32;;;4.88;;
51382;SDS011;37475;43.358;1.248;2023-10-09T02:48:46;8.00;;;4.60;;
51382;SDS011;37475;43.358;1.248;2023-10-09T02:51:19;8.40;;;4.30;;
51382;SDS011;37475;43.358;1.248;2023-10-09T02:53:55;7.40;;;4.22;;
51382;SDS011;37475;43.358;1.248;2023-10-09T02:56:23;8.25;;;4.05;;
51382;SDS011;37475;43.358;1.248;2023-10-09T02:58:50;10.32;;;4.10;;
51382;SDS011;37475;43.358;1.248;2023-10-09T03:01:16;8.75;;;4.00;;
51382;SDS011;37475;43.358;1.248;2023-10-09T03:03:42;9.85;;;4.30;;
51382;SDS011;37475;43.358;1.248;2023-10-09T03:06:13;10.18;;;4.45;;
51382;SDS011;37475;43.358;1.248;2023-10-09T03:08:51;8.05;;;4.60;;
51382;SDS011;37475;43.358;1.248;2023-10-09T03:11:20;9.73;;;4.80;;
51382;SDS011;37475;43.358;1.248;2023-10-09T03:13:46;10.20;;;4.50;;
51382;SDS011;37475;43.358;1.248;2023-10-09T03:16:12;10.95;;;4.78;;
51382;SDS011;37475;43.358;1.248;2023-10-09T03:18:44;7.68;;;4.45;;
51382;SDS011;37475;43.358;1.248;2023-10-09T03:21:19;8.93;;;4.47;;
51382;SDS011;37475;43.358;1.248;2023-10-09T03:23:48;18.33;;;5.60;;
51382;SDS011;37475;43.358;1.248;2023-10-09T03:26:17;16.40;;;5.10;;
51382;SDS011;37475;43.358;1.248;2023-10-09T03:28:47;18.15;;;4.97;;
51382;SDS011;37475;43.358;1.248;2023-10-09T03:31:14;13.98;;;5.55;;
51382;SDS011;37475;43.358;1.248;2023-10-09T03:33:40;12.23;;;4.38;;
51382;SDS011;37475;43.358;1.248;2023-10-09T03:36:07;12.15;;;5.03;;
51382;SDS011;37475;43.358;1.248;2023-10-09T03:38:36;10.05;;;4.43;;
51382;SDS011;37475;43.358;1.248;2023-10-09T03:41:04;10.30;;;4.32;;
51382;SDS011;37475;43.358;1.248;2023-10-09T03:43:37;8.02;;;4.30;;
51382;SDS011;37475;43.358;1.248;2023-10-09T03:46:09;8.45;;;4.32;;
51382;SDS011;37475;43.358;1.248;2023-10-09T03:48:51;7.25;;;4.25;;
51382;SDS011;37475;43.358;1.248;2023-10-09T03:51:18;9.02;;;3.72;;
51382;SDS011;37475;43.358;1.248;2023-10-09T03:53:47;9.07;;;4.10;;
51382;SDS011;37475;43.358;1.248;2023-10-09T03:56:14;10.00;;;3.92;;
51382;SDS011;37475;43.358;1.248;2023-10-09T03:58:51;7.50;;;3.88;;
51382;SDS011;37475;43.358;1.248;2023-10-09T04:01:19;7.30;;;4.10;;
51382;SDS011;37475;43.358;1.248;2023-10-09T04:03:57;8.05;;;4.05;;
51382;SDS011;37475;43.358;1.248;2023-10-09T04:06:25;7.05;;;4.00;;
51382;SDS011;37475;43.358;1.248;2023-10-09T04:08:56;10.80;;;4.10;;
51382;SDS011;37475;43.358;1.248;2023-10-09T04:11:24;11.20;;;4.53;;
51382;SDS011;37475;43.358;1.248;2023-10-09T04:13:50;13.35;;;4.28;;
51382;SDS011;37475;43.358;1.248;2023-10-09T04:16:18;9.13;;;4.18;;
51382;SDS011;37475;43.358;1.248;2023-10-09T04:18:56;7.45;;;4.07;;
51382;SDS011;37475;43.358;1.248;2023-10-09T04:21:24;7.05;;;3.97;;
51382;SDS011;37475;43.358;1.248;2023-10-09T04:24:02;8.93;;;3.72;;
51382;SDS011;37475;43.358;1.248;2023-10-09T04:26:37;12.55;;;4.15;;
51382;SDS011;37475;43.358;1.248;2023-10-09T04:29:11;8.75;;;3.90;;
51382;SDS011;37475;43.358;1.248;2023-10-09T04:31:51;8.25;;;3.88;;
51382;SDS011;37475;43.358;1.248;2023-10-09T04:34:24;10.93;;;4.03;;
51382;SDS011;37475;43.358;1.248;2023-10-09T04:36:59;7.07;;;3.78;;
51382;SDS011;37475;43.358;1.248;2023-10-09T04:39:29;5.88;;;3.80;;
51382;SDS011;37475;43.358;1.248;2023-10-09T04:41:55;10.48;;;4.00;;
51382;SDS011;37475;43.358;1.248;2023-10-09T04:44:41;9.90;;;4.13;;
51382;SDS011;37475;43.358;1.248;2023-10-09T04:47:27;7.22;;;4.22;;
51382;SDS011;37475;43.358;1.248;2023-10-09T04:50:06;12.02;;;4.10;;
51382;SDS011;37475;43.358;1.248;2023-10-09T04:53:00;8.60;;;4.00;;
51382;SDS011;37475;43.358;1.248;2023-10-09T04:55:44;10.38;;;3.97;;
51382;SDS011;37475;43.358;1.248;2023-10-09T04:58:22;8.43;;;4.10;;
51382;SDS011;37475;43.358;1.248;2023-10-09T05:00:54;8.77;;;3.90;;
51382;SDS011;37475;43.358;1.248;2023-10-09T05:03:23;10.82;;;4.22;;
51382;SDS011;37475;43.358;1.248;2023-10-09T05:06:15;8.68;;;4.10;;
51382;SDS011;37475;43.358;1.248;2023-10-09T05:08:57;7.80;;;4.10;;
51382;SDS011;37475;43.358;1.248;2023-10-09T05:11:34;8.32;;;4.13;;
51382;SDS011;37475;43.358;1.248;2023-10-09T05:14:19;9.43;;;4.35;;
51382;SDS011;37475;43.358;1.248;2023-10-09T05:16:52;7.57;;;3.70;;
51382;SDS011;37475;43.358;1.248;2023-10-09T05:19:23;7.80;;;4.25;;
51382;SDS011;37475;43.358;1.248;2023-10-09T05:22:10;11.25;;;4.22;;
51382;SDS011;37475;43.358;1.248;2023-10-09T05:24:55;9.77;;;4.28;;
51382;SDS011;37475;43.358;1.248;2023-10-09T05:27:22;9.82;;;3.88;;
51382;SDS011;37475;43.358;1.248;2023-10-09T05:30:11;7.75;;;4.05;;
51382;SDS011;37475;43.358;1.248;2023-10-09T05:32:53;10.70;;;3.95;;
51382;SDS011;37475;43.358;1.248;2023-10-09T05:35:23;9.15;;;4.07;;
51382;SDS011;37475;43.358;1.248;2023-10-09T05:38:06;14.30;;;4.60;;
51382;SDS011;37475;43.358;1.248;2023-10-09T05:40:48;7.20;;;4.13;;
51382;SDS011;37475;43.358;1.248;2023-10-09T05:43:19;9.10;;;4.38;;
51382;SDS011;37475;43.358;1.248;2023-10-09T05:46:04;7.57;;;3.90;;
51382;SDS011;37475;43.358;1.248;2023-10-09T05:48:34;6.70;;;3.70;;
51382;SDS011;37475;43.358;1.248;2023-10-09T05:51:04;7.82;;;4.00;;
51382;SDS011;37475;43.358;1.248;2023-10-09T05:53:59;10.40;;;4.40;;
51382;SDS011;37475;43.358;1.248;2023-10-09T05:56:48;16.02;;;4.25;;
51382;SDS011;37475;43.358;1.248;2023-10-09T05:59:33;10.45;;;4.10;;
51382;SDS011;37475;43.358;1.248;2023-10-09T06:02:31;10.20;;;4.47;;
51382;SDS011;37475;43.358;1.248;2023-10-09T06:05:15;9.38;;;4.47;;
51382;SDS011;37475;43.358;1.248;2023-10-09T06:08:01;9.68;;;4.15;;
51382;SDS011;37475;43.358;1.248;2023-10-09T06:10:31;10.18;;;4.28;;
51382;SDS011;37475;43.358;1.248;2023-10-09T06:15:36;14.73;;;4.57;;
51382;SDS011;37475;43.358;1.248;2023-10-09T06:21:06;13.18;;;4.65;;
51382;SDS011;37475;43.358;1.248;2023-10-09T06:23:52;11.75;;;3.83;;
51382;SDS011;37475;43.358;1.248;2023-10-09T06:26:36;13.23;;;3.80;;
51382;SDS011;37475;43.358;1.248;2023-10-09T06:29:02;11.68;;;3.65;;
51382;SDS011;37475;43.358;1.248;2023-10-09T06:31:40;14.15;;;4.32;;
51382;SDS011;37475;43.358;1.248;2023-10-09T06:34:27;11.90;;;4.28;;
51382;SDS011;37475;43.358;1.248;2023-10-09T06:39:42;16.02;;;4.72;;
51382;SDS011;37475;43.358;1.248;2023-10-09T06:42:20;14.10;;;4.47;;
51382;SDS011;37475;43.358;1.248;2023-10-09T06:45:02;14.80;;;3.95;;
51382;SDS011;37475;43.358;1.248;2023-10-09T06:47:50;11.18;;;4.15;;
51382;SDS011;37475;43.358;1.248;2023-10-09T06:50:34;14.93;;;4.47;;
51382;SDS011;37475;43.358;1.248;2023-10-09T06:53:23;14.18;;;4.00;;
51382;SDS011;37475;43.358;1.248;2023-10-09T06:56:11;14.95;;;4.65;;
51382;SDS011;37475;43.358;1.248;2023-10-09T06:58:48;19.17;;;4.25;;
51382;SDS011;37475;43.358;1.248;2023-10-09T07:01:19;11.02;;;4.13;;
51382;SDS011;37475;43.358;1.248;2023-10-09T07:03:52;10.57;;;3.60;;
51382;SDS011;37475;43.358;1.248;2023-10-09T07:06:21;7.93;;;3.45;;
51382;SDS011;37475;43.358;1.248;2023-10-09T07:08:54;12.32;;;3.80;;
51382;SDS011;37475;43.358;1.248;2023-10-09T07:11:47;10.32;;;3.90;;
51382;SDS011;37475;43.358;1.248;2023-10-09T07:14:15;11.13;;;3.88;;
51382;SDS011;37475;43.358;1.248;2023-10-09T07:16:55;9.98;;;3.35;;
51382;SDS011;37475;43.358;1.248;2023-10-09T07:19:30;12.32;;;3.70;;
51382;SDS011;37475;43.358;1.248;2023-10-09T07:22:01;13.65;;;3.85;;
51382;SDS011;37475;43.358;1.248;2023-10-09T07:24:29;18.00;;;3.90;;
51382;SDS011;37475;43.358;1.248;2023-10-09T07:27:25;28.58;;;3.60;;
51382;SDS011;37475;43.358;1.248;2023-10-09T07:30:12;11.77;;;3.78;;
51382;SDS011;37475;43.358;1.248;2023-10-09T07:32:54;13.13;;;3.13;;
51382;SDS011;37475;43.358;1.248;2023-10-09T07:35:39;10.82;;;3.75;;
51382;SDS011;37475;43.358;1.248;2023-10-09T07:38:07;12.80;;;3.53;;
51382;SDS011;37475;43.358;1.248;2023-10-09T07:40:40;12.45;;;3.42;;
51382;SDS011;37475;43.358;1.248;2023-10-09T07:43:25;14.20;;;3.65;;
51382;SDS011;37475;43.358;1.248;2023-10-09T07:48:57;11.07;;;3.13;;
51382;SDS011;37475;43.358;1.248;2023-10-09T07:51:37;10.15;;;3.00;;
51382;SDS011;37475;43.358;1.248;2023-10-09T07:54:08;8.18;;;3.35;;
51382;SDS011;37475;43.358;1.248;2023-10-09T07:56:40;8.27;;;2.92;;
51382;SDS011;37475;43.358;1.248;2023-10-09T07:59:08;6.97;;;2.83;;
51382;SDS011;37475;43.358;1.248;2023-10-09T08:01:40;9.40;;;3.08;;
51382;SDS011;37475;43.358;1.248;2023-10-09T08:04:24;13.73;;;2.75;;
51382;SDS011;37475;43.358;1.248;2023-10-09T08:07:04;7.68;;;3.03;;
51382;SDS011;37475;43.358;1.248;2023-10-09T08:09:32;9.68;;;3.15;;
51382;SDS011;37475;43.358;1.248;2023-10-09T08:12:15;6.70;;;3.00;;
51382;SDS011;37475;43.358;1.248;2023-10-09T08:15:03;5.88;;;2.83;;
51382;SDS011;37475;43.358;1.248;2023-10-09T08:17:55;7.53;;;2.78;;
51382;SDS011;37475;43.358;1.248;2023-10-09T08:20:29;6.78;;;2.88;;
51382;SDS011;37475;43.358;1.248;2023-10-09T08:23:14;7.43;;;3.00;;
51382;SDS011;37475;43.358;1.248;2023-10-09T08:25:58;10.50;;;3.00;;
51382;SDS011;37475;43.358;1.248;2023-10-09T08:28:40;12.02;;;3.05;;
51382;SDS011;37475;43.358;1.248;2023-10-09T08:33:59;12.35;;;3.83;;
51382;SDS011;37475;43.358;1.248;2023-10-09T08:36:26;11.25;;;3.38;;
51382;SDS011;37475;43.358;1.248;2023-10-09T08:38:54;14.63;;;3.30;;
51382;SDS011;37475;43.358;1.248;2023-10-09T08:41:24;6.68;;;2.55;;
51382;SDS011;37475;43.358;1.248;2023-10-09T08:43:55;7.13;;;2.90;;
51382;SDS011;37475;43.358;1.248;2023-10-09T08:46:26;6.25;;;2.60;;
51382;SDS011;37475;43.358;1.248;2023-10-09T08:48:53;4.97;;;2.88;;
51382;SDS011;37475;43.358;1.248;2023-10-09T08:51:30;6.88;;;2.60;;
51382;SDS011;37475;43.358;1.248;2023-10-09T08:54:00;10.77;;;3.05;;
51382;SDS011;37475;43.358;1.248;2023-10-09T08:56:26;9.70;;;2.67;;
51382;SDS011;37475;43.358;1.248;2023-10-09T08:58:52;11.48;;;2.80;;
51382;SDS011;37475;43.358;1.248;2023-10-09T09:01:20;10.65;;;2.95;;
51382;SDS011;37475;43.358;1.248;2023-10-09T09:03:48;9.27;;;2.63;;
51382;SDS011;37475;43.358;1.248;2023-10-09T09:06:15;8.63;;;2.60;;
51382;SDS011;37475;43.358;1.248;2023-10-09T09:08:45;13.93;;;3.13;;
51382;SDS011;37475;43.358;1.248;2023-10-09T09:11:13;10.70;;;2.90;;
51382;SDS011;37475;43.358;1.248;2023-10-09T09:13:47;11.55;;;2.80;;
51382;SDS011;37475;43.358;1.248;2023-10-09T09:16:29;23.25;;;3.75;;
51382;SDS011;37475;43.358;1.248;2023-10-09T09:19:00;15.82;;;3.33;;
51382;SDS011;37475;43.358;1.248;2023-10-09T09:24:07;15.30;;;3.10;;
51382;SDS011;37475;43.358;1.248;2023-10-09T09:29:24;12.93;;;3.05;;
51382;SDS011;37475;43.358;1.248;2023-10-09T09:32:02;9.38;;;2.80;;
51382;SDS011;37475;43.358;1.248;2023-10-09T09:37:26;8.07;;;3.10;;
51382;SDS011;37475;43.358;1.248;2023-10-09T09:40:03;8.55;;;2.92;;
51382;SDS011;37475;43.358;1.248;2023-10-09T09:42:56;11.93;;;3.05;;
51382;SDS011;37475;43.358;1.248;2023-10-09T09:45:36;12.75;;;2.95;;
51382;SDS011;37475;43.358;1.248;2023-10-09T09:48:08;15.70;;;3.22;;
51382;SDS011;37475;43.358;1.248;2023-10-09T09:50:41;7.50;;;2.47;;
51382;SDS011;37475;43.358;1.248;2023-10-09T09:53:15;10.85;;;2.40;;
51382;SDS011;37475;43.358;1.248;2023-10-09T09:55:50;15.47;;;3.47;;
51382;SDS011;37475;43.358;1.248;2023-10-09T09:58:23;8.63;;;2.80;;
51382;SDS011;37475;43.358;1.248;2023-10-09T10:00:53;10.38;;;2.80;;
51382;SDS011;37475;43.358;1.248;2023-10-09T10:03:36;8.95;;;3.10;;
51382;SDS011;37475;43.358;1.248;2023-10-09T10:06:08;12.13;;;2.78;;
51382;SDS011;37475;43.358;1.248;2023-10-09T10:08:37;12.25;;;2.97;;
51382;SDS011;37475;43.358;1.248;2023-10-09T10:11:04;10.45;;;3.10;;
51382;SDS011;37475;43.358;1.248;2023-10-09T10:16:06;12.88;;;2.95;;
51382;SDS011;37475;43.358;1.248;2023-10-09T10:21:34;9.88;;;3.03;;
51382;SDS011;37475;43.358;1.248;2023-10-09T10:24:00;13.23;;;2.67;;
51382;SDS011;37475;43.358;1.248;2023-10-09T10:26:35;11.65;;;2.83;;
51382;SDS011;37475;43.358;1.248;2023-10-09T10:29:20;8.20;;;3.00;;
51382;SDS011;37475;43.358;1.248;2023-10-09T10:31:57;5.82;;;2.65;;
51382;SDS011;37475;43.358;1.248;2023-10-09T10:37:38;7.78;;;2.83;;
51382;SDS011;37475;43.358;1.248;2023-10-09T10:40:30;9.20;;;2.85;;
51382;SDS011;37475;43.358;1.248;2023-10-09T10:43:18;15.60;;;2.72;;
51382;SDS011;37475;43.358;1.248;2023-10-09T10:46:03;6.63;;;2.50;;
51382;SDS011;37475;43.358;1.248;2023-10-09T10:48:34;11.80;;;2.95;;
51382;SDS011;37475;43.358;1.248;2023-10-09T10:51:04;8.32;;;2.70;;
51382;SDS011;37475;43.358;1.248;2023-10-09T10:53:30;9.48;;;3.17;;
51382;SDS011;37475;43.358;1.248;2023-10-09T10:56:12;9.20;;;2.90;;
51382;SDS011;37475;43.358;1.248;2023-10-09T10:58:42;14.35;;;3.00;;
51382;SDS011;37475;43.358;1.248;2023-10-09T11:01:31;11.48;;;3.15;;
51382;SDS011;37475;43.358;1.248;2023-10-09T11:04:17;10.70;;;2.90;;
51382;SDS011;37475;43.358;1.248;2023-10-09T11:07:06;8.77;;;3.13;;
51382;SDS011;37475;43.358;1.248;2023-10-09T11:12:46;14.00;;;3.45;;
51382;SDS011;37475;43.358;1.248;2023-10-09T11:15:29;12.00;;;3.00;;
51382;SDS011;37475;43.358;1.248;2023-10-09T11:18:09;9.93;;;2.80;;
51382;SDS011;37475;43.358;1.248;2023-10-09T11:20:54;12.80;;;3.00;;
51382;SDS011;37475;43.358;1.248;2023-10-09T11:23:29;17.70;;;3.05;;
51382;SDS011;37475;43.358;1.248;2023-10-09T11:25:59;11.65;;;2.95;;
51382;SDS011;37475;43.358;1.248;2023-10-09T11:32:16;11.68;;;2.95;;
51382;SDS011;37475;43.358;1.248;2023-10-09T11:34:47;8.47;;;2.80;;
51382;SDS011;37475;43.358;1.248;2023-10-09T11:37:18;9.88;;;2.97;;
51382;SDS011;37475;43.358;1.248;2023-10-09T11:39:55;11.05;;;2.95;;
51382;SDS011;37475;43.358;1.248;2023-10-09T11:42:22;9.38;;;2.80;;
51382;SDS011;37475;43.358;1.248;2023-10-09T11:45:25;9.05;;;2.60;;
51382;SDS011;37475;43.358;1.248;2023-10-09T11:48:06;14.90;;;2.78;;
51382;SDS011;37475;43.358;1.248;2023-10-09T11:51:11;9.82;;;2.78;;
51382;SDS011;37475;43.358;1.248;2023-10-09T11:53:44;12.65;;;3.20;;
51382;SDS011;37475;43.358;1.248;2023-10-09T11:56:22;9.25;;;3.30;;
51382;SDS011;37475;43.358;1.248;2023-10-09T11:58:52;12.48;;;3.00;;
51382;SDS011;37475;43.358;1.248;2023-10-09T12:01:18;12.50;;;3.53;;
51382;SDS011;37475;43.358;1.248;2023-10-09T12:03:49;15.35;;;3.00;;
51382;SDS011;37475;43.358;1.248;2023-10-09T12:06:16;7.10;;;3.00;;
51382;SDS011;37475;43.358;1.248;2023-10-09T12:08:49;9.05;;;2.75;;
51382;SDS011;37475;43.358;1.248;2023-10-09T12:11:16;9.68;;;3.00;;
51382;SDS011;37475;43.358;1.248;2023-10-09T12:14:02;7.57;;;2.65;;
51382;SDS011;37475;43.358;1.248;2023-10-09T12:16:29;16.58;;;3.25;;
51382;SDS011;37475;43.358;1.248;2023-10-09T12:18:57;11.52;;;2.83;;
51382;SDS011;37475;43.358;1.248;2023-10-09T12:21:24;9.40;;;2.83;;
51382;SDS011;37475;43.358;1.248;2023-10-09T12:23:53;10.48;;;2.92;;
51382;SDS011;37475;43.358;1.248;2023-10-09T12:26:22;7.75;;;2.60;;
51382;SDS011;37475;43.358;1.248;2023-10-09T12:28:49;6.85;;;2.28;;
51382;SDS011;37475;43.358;1.248;2023-10-09T12:31:15;6.82;;;2.40;;
51382;SDS011;37475;43.358;1.248;2023-10-09T12:33:45;8.65;;;2.13;;
51382;SDS011;37475;43.358;1.248;2023-10-09T12:36:12;9.50;;;2.30;;
51382;SDS011;37475;43.358;1.248;2023-10-09T12:38:49;7.55;;;2.30;;
51382;SDS011;37475;43.358;1.248;2023-10-09T12:41:19;9.27;;;2.35;;
51382;SDS011;37475;43.358;1.248;2023-10-09T12:43:58;8.02;;;2.53;;
51382;SDS011;37475;43.358;1.248;2023-10-09T12:46:24;7.97;;;2.40;;
51382;SDS011;37475;43.358;1.248;2023-10-09T12:48:57;9.57;;;2.55;;
51382;SDS011;37475;43.358;1.248;2023-10-09T12:51:23;6.40;;;2.47;;
51382;SDS011;37475;43.358;1.248;2023-10-09T12:53:54;12.32;;;2.80;;
51382;SDS011;37475;43.358;1.248;2023-10-09T12:56:24;8.25;;;2.50;;
51382;SDS011;37475;43.358;1.248;2023-10-09T12:59:02;10.13;;;2.50;;
51382;SDS011;37475;43.358;1.248;2023-10-09T13:01:32;6.53;;;2.20;;
51382;SDS011;37475;43.358;1.248;2023-10-09T13:04:10;9.40;;;2.50;;
51382;SDS011;37475;43.358;1.248;2023-10-09T13:06:40;9.85;;;2.60;;
51382;SDS011;37475;43.358;1.248;2023-10-09T13:09:10;8.48;;;2.33;;
51382;SDS011;37475;43.358;1.248;2023-10-09T13:11:38;4.97;;;2.05;;
51382;SDS011;37475;43.358;1.248;2023-10-09T13:14:08;12.32;;;2.45;;
51382;SDS011;37475;43.358;1.248;2023-10-09T13:16:53;7.80;;;2.13;;
51382;SDS011;37475;43.358;1.248;2023-10-09T13:19:19;10.30;;;2.85;;
51382;SDS011;37475;43.358;1.248;2023-10-09T13:21:49;15.40;;;2.85;;
51382;SDS011;37475;43.358;1.248;2023-10-09T13:24:15;4.72;;;2.25;;
51382;SDS011;37475;43.358;1.248;2023-10-09T13:26:44;7.22;;;2.38;;
51382;SDS011;37475;43.358;1.248;2023-10-09T13:29:12;10.85;;;2.28;;
51382;SDS011;37475;43.358;1.248;2023-10-09T13:31:39;8.18;;;2.20;;
51382;SDS011;37475;43.358;1.248;2023-10-09T13:34:11;7.93;;;2.10;;
51382;SDS011;37475;43.358;1.248;2023-10-09T13:36:40;9.55;;;2.42;;
51382;SDS011;37475;43.358;1.248;2023-10-09T13:39:15;6.38;;;2.25;;
51382;SDS011;37475;43.358;1.248;2023-10-09T13:41:57;7.35;;;1.88;;
51382;SDS011;37475;43.358;1.248;2023-10-09T13:44:31;11.77;;;2.13;;
51382;SDS011;37475;43.358;1.248;2023-10-09T13:46:59;4.45;;;1.80;;
51382;SDS011;37475;43.358;1.248;2023-10-09T13:49:30;3.80;;;1.80;;
51382;SDS011;37475;43.358;1.248;2023-10-09T13:51:57;7.50;;;2.05;;
51382;SDS011;37475;43.358;1.248;2023-10-09T13:54:25;6.18;;;1.67;;
51382;SDS011;37475;43.358;1.248;2023-10-09T13:56:58;6.40;;;1.70;;
51382;SDS011;37475;43.358;1.248;2023-10-09T13:59:29;4.18;;;2.00;;
51382;SDS011;37475;43.358;1.248;2023-10-09T14:01:55;5.43;;;1.98;;
51382;SDS011;37475;43.358;1.248;2023-10-09T14:04:22;8.60;;;1.73;;
51382;SDS011;37475;43.358;1.248;2023-10-09T14:06:48;7.55;;;2.10;;
51382;SDS011;37475;43.358;1.248;2023-10-09T14:09:22;12.88;;;2.10;;
51382;SDS011;37475;43.358;1.248;2023-10-09T14:12:20;5.97;;;2.00;;
51382;SDS011;37475;43.358;1.248;2023-10-09T14:14:47;7.97;;;1.80;;
51382;SDS011;37475;43.358;1.248;2023-10-09T14:17:16;5.55;;;1.83;;
51382;SDS011;37475;43.358;1.248;2023-10-09T14:19:48;7.65;;;2.13;;
51382;SDS011;37475;43.358;1.248;2023-10-09T14:22:19;6.35;;;2.22;;
51382;SDS011;37475;43.358;1.248;2023-10-09T14:24:49;5.20;;;2.08;;
51382;SDS011;37475;43.358;1.248;2023-10-09T14:27:20;6.38;;;2.10;;
51382;SDS011;37475;43.358;1.248;2023-10-09T14:29:51;11.75;;;2.30;;
51382;SDS011;37475;43.358;1.248;2023-10-09T14:32:21;9.98;;;2.22;;
51382;SDS011;37475;43.358;1.248;2023-10-09T14:34:54;10.00;;;2.40;;
51382;SDS011;37475;43.358;1.248;2023-10-09T14:37:26;6.38;;;2.78;;
51382;SDS011;37475;43.358;1.248;2023-10-09T14:39:57;7.82;;;2.40;;
51382;SDS011;37475;43.358;1.248;2023-10-09T14:42:23;7.93;;;2.10;;
51382;SDS011;37475;43.358;1.248;2023-10-09T14:44:52;16.30;;;2.63;;
51382;SDS011;37475;43.358;1.248;2023-10-09T14:47:20;7.85;;;2.25;;
51382;SDS011;37475;43.358;1.248;2023-10-09T14:49:46;8.68;;;2.00;;
51382;SDS011;37475;43.358;1.248;2023-10-09T14:52:13;12.38;;;2.65;;
51382;SDS011;37475;43.358;1.248;2023-10-09T14:54:44;6.53;;;2.30;;
51382;SDS011;37475;43.358;1.248;2023-10-09T14:57:10;11.70;;;2.53;;
51382;SDS011;37475;43.358;1.248;2023-10-09T14:59:38;7.55;;;2.38;;
51382;SDS011;37475;43.358;1.248;2023-10-09T15:02:04;7.47;;;2.33;;
51382;SDS011;37475;43.358;1.248;2023-10-09T15:04:32;10.10;;;2.20;;
51382;SDS011;37475;43.358;1.248;2023-10-09T15:07:01;7.45;;;2.00;;
51382;SDS011;37475;43.358;1.248;2023-10-09T15:09:31;13.23;;;2.40;;
51382;SDS011;37475;43.358;1.248;2023-10-09T15:12:05;9.43;;;2.17;;
51382;SDS011;37475;43.358;1.248;2023-10-09T15:14:31;8.82;;;2.35;;
51382;SDS011;37475;43.358;1.248;2023-10-09T15:16:58;7.45;;;2.70;;
51382;SDS011;37475;43.358;1.248;2023-10-09T15:19:24;11.63;;;2.92;;
51382;SDS011;37475;43.358;1.248;2023-10-09T15:21:54;6.68;;;2.47;;
51382;SDS011;37475;43.358;1.248;2023-10-09T15:24:23;7.35;;;2.42;;
51382;SDS011;37475;43.358;1.248;2023-10-09T15:26:50;9.13;;;2.97;;
51382;SDS011;37475;43.358;1.248;2023-10-09T15:29:22;8.50;;;2.45;;
51382;SDS011;37475;43.358;1.248;2023-10-09T15:31:59;7.82;;;2.20;;
51382;SDS011;37475;43.358;1.248;2023-10-09T15:34:30;10.48;;;2.20;;
51382;SDS011;37475;43.358;1.248;2023-10-09T15:36:56;10.20;;;2.70;;
51382;SDS011;37475;43.358;1.248;2023-10-09T15:39:22;8.23;;;2.50;;
51382;SDS011;37475;43.358;1.248;2023-10-09T15:41:49;7.38;;;2.55;;
51382;SDS011;37475;43.358;1.248;2023-10-09T15:44:16;6.45;;;2.67;;
51382;SDS011;37475;43.358;1.248;2023-10-09T15:46:43;11.25;;;2.72;;
51382;SDS011;37475;43.358;1.248;2023-10-09T15:49:10;9.10;;;2.58;;
51382;SDS011;37475;43.358;1.248;2023-10-09T15:51:38;7.25;;;2.40;;
51382;SDS011;37475;43.358;1.248;2023-10-09T15:54:05;7.78;;;2.55;;
51382;SDS011;37475;43.358;1.248;2023-10-09T15:56:31;8.00;;;2.65;;
51382;SDS011;37475;43.358;1.248;2023-10-09T15:58:59;9.57;;;2.72;;
51382;SDS011;37475;43.358;1.248;2023-10-09T16:01:25;8.70;;;2.35;;
51382;SDS011;37475;43.358;1.248;2023-10-09T16:03:51;6.55;;;2.95;;
51382;SDS011;37475;43.358;1.248;2023-10-09T16:06:18;11.80;;;2.70;;
51382;SDS011;37475;43.358;1.248;2023-10-09T16:08:48;7.57;;;2.47;;